createdAt,value
2022-07-28T00:01:50.207Z,1.80
2022-07-28T00:04:18.259Z,2.00
2022-07-28T00:06:46.319Z,2.20
2022-07-28T00:09:14.594Z,2.50
2022-07-28T00:11:54.425Z,1.90
2022-07-28T00:14:24.355Z,2.00
2022-07-28T00:16:52.659Z,2.20
2022-07-28T00:19:20.835Z,2.20
2022-07-28T00:21:48.920Z,2.20
2022-07-28T00:24:17.342Z,2.20
2022-07-28T00:26:46.785Z,2.00
2022-07-28T00:29:15.243Z,2.50
2022-07-28T00:31:43.433Z,2.00
2022-07-28T00:34:12.595Z,2.60
2022-07-28T00:36:41.106Z,2.30
2022-07-28T00:39:09.390Z,2.30
2022-07-28T00:41:37.515Z,2.40
2022-07-28T00:44:08.023Z,2.40
2022-07-28T00:46:36.971Z,2.60
2022-07-28T00:49:05.949Z,2.10
2022-07-28T00:51:34.430Z,2.20
2022-07-28T00:54:04.519Z,2.50
2022-07-28T00:56:34.672Z,2.50
2022-07-28T00:59:02.697Z,2.20
2022-07-28T01:01:30.726Z,2.10
2022-07-28T01:04:02.347Z,2.20
2022-07-28T01:07:03.424Z,2.70
2022-07-28T01:09:50.039Z,2.30
2022-07-28T01:12:57.033Z,2.00
2022-07-28T01:15:33.574Z,2.30
2022-07-28T01:18:17.226Z,2.00
2022-07-28T01:20:55.559Z,2.60
2022-07-28T01:23:32.257Z,2.30
2022-07-28T01:26:24.336Z,2.20
2022-07-28T01:29:16.522Z,2.50
2022-07-28T01:32:08.755Z,2.30
2022-07-28T01:34:52.309Z,2.40
2022-07-28T01:37:25.856Z,2.40
2022-07-28T01:39:59.166Z,2.50
2022-07-28T01:42:37.262Z,2.50
2022-07-28T01:45:08.340Z,2.40
2022-07-28T01:47:37.731Z,2.30
2022-07-28T01:50:10.471Z,2.40
2022-07-28T01:52:42.050Z,2.40
2022-07-28T01:55:14.031Z,2.50
2022-07-28T01:57:44.475Z,2.30
2022-07-28T02:00:14.339Z,2.60
2022-07-28T02:02:46.286Z,2.20
2022-07-28T02:05:19.285Z,2.30
2022-07-28T02:07:51.631Z,2.20
2022-07-28T02:10:22.074Z,2.50
2022-07-28T02:12:53.328Z,2.40
2022-07-28T02:15:22.545Z,2.40
2022-07-28T02:17:53.756Z,2.60
2022-07-28T02:20:23.630Z,2.40
2022-07-28T02:22:54.460Z,2.80
2022-07-28T02:25:22.704Z,2.50
2022-07-28T02:28:05.611Z,1.80
2022-07-28T02:30:48.160Z,2.20
2022-07-28T02:33:57.963Z,2.20
2022-07-28T02:36:16.199Z,2.40
2022-07-28T02:38:51.967Z,2.70
2022-07-28T02:41:27.509Z,2.40
2022-07-28T02:44:00.158Z,2.50
2022-07-28T02:46:38.434Z,2.40
2022-07-28T02:49:12.501Z,2.80
2022-07-28T02:51:43.416Z,2.60
2022-07-28T02:54:13.710Z,2.30
2022-07-28T02:56:42.457Z,2.20
2022-07-28T02:59:23.735Z,2.30
2022-07-28T03:01:53.132Z,2.50
2022-07-28T03:04:43.515Z,2.30
2022-07-28T03:07:11.873Z,2.20
2022-07-28T03:09:42.576Z,2.40
2022-07-28T03:12:11.667Z,2.50
2022-07-28T03:14:40.250Z,2.80
2022-07-28T03:17:09.457Z,2.40
2022-07-28T03:19:37.636Z,2.60
2022-07-28T03:22:10.370Z,2.60
2022-07-28T03:24:44.584Z,2.70
2022-07-28T03:27:33.295Z,3.20
2022-07-28T03:30:07.259Z,2.80
2022-07-28T03:32:38.767Z,3.30
2022-07-28T03:35:07.186Z,2.80
2022-07-28T03:38:06.399Z,3.30
2022-07-28T03:40:37.954Z,2.90
2022-07-28T03:43:08.918Z,3.50
2022-07-28T03:45:41.081Z,3.50
2022-07-28T03:48:10.404Z,3.20
2022-07-28T03:50:38.475Z,3.50
2022-07-28T03:53:14.077Z,3.10
2022-07-28T03:55:42.156Z,2.90
2022-07-28T03:58:10.116Z,2.80
2022-07-28T04:00:38.179Z,3.00
2022-07-28T04:03:42.322Z,3.10
2022-07-28T04:05:58.028Z,3.10
2022-07-28T04:08:26.038Z,3.20
2022-07-28T04:10:53.991Z,3.10
2022-07-28T04:13:22.005Z,3.40
2022-07-28T04:15:50.037Z,2.90
2022-07-28T04:18:18.821Z,2.50
2022-07-28T04:20:46.937Z,3.20
2022-07-28T04:23:14.799Z,3.20
2022-07-28T04:25:42.906Z,3.20
2022-07-28T04:28:10.970Z,3.50
2022-07-28T04:30:43.896Z,3.20
2022-07-28T04:33:13.032Z,3.20
2022-07-28T04:35:41.055Z,3.30
2022-07-28T04:38:09.183Z,3.40
2022-07-28T04:40:37.274Z,3.30
2022-07-28T04:43:06.217Z,3.60
2022-07-28T04:45:34.572Z,3.40
2022-07-28T04:48:02.891Z,4.00
2022-07-28T04:50:30.967Z,3.50
2022-07-28T04:52:59.529Z,3.70
2022-07-28T04:55:27.751Z,3.50
2022-07-28T04:57:55.851Z,3.70
2022-07-28T05:00:24.018Z,3.60
2022-07-28T05:05:44.076Z,3.70
2022-07-28T05:08:17.082Z,3.80
2022-07-28T05:10:46.001Z,3.90
2022-07-28T05:13:13.927Z,3.50
2022-07-28T05:15:49.784Z,3.80
2022-07-28T05:18:17.839Z,3.40
2022-07-28T05:20:45.758Z,2.30
2022-07-28T05:23:13.672Z,3.20
2022-07-28T05:25:41.591Z,3.00
2022-07-28T05:28:09.592Z,2.80
2022-07-28T05:30:38.565Z,2.90
2022-07-28T05:33:06.449Z,3.10
2022-07-28T05:35:34.452Z,3.30
2022-07-28T05:38:03.670Z,2.30
2022-07-28T05:40:33.645Z,2.20
2022-07-28T05:43:01.587Z,2.10
2022-07-28T05:45:29.688Z,2.20
2022-07-28T05:47:57.593Z,2.00
2022-07-28T05:50:26.695Z,1.90
2022-07-28T05:52:54.778Z,2.60
2022-07-28T05:55:22.943Z,2.00
2022-07-28T05:57:51.329Z,2.30
2022-07-28T06:00:21.247Z,2.00
2022-07-28T06:02:50.697Z,2.00
2022-07-28T06:05:21.606Z,1.70
2022-07-28T06:07:51.804Z,1.80
2022-07-28T06:10:25.372Z,2.00
2022-07-28T06:12:55.346Z,1.80
2022-07-28T06:15:25.919Z,1.50
2022-07-28T06:17:58.206Z,1.40
2022-07-28T06:20:28.874Z,1.90
2022-07-28T06:22:56.851Z,1.50
2022-07-28T06:25:27.736Z,1.80
2022-07-28T06:27:57.817Z,1.80
2022-07-28T06:30:27.432Z,1.80
2022-07-28T06:32:56.765Z,1.50
2022-07-28T06:35:27.944Z,2.00
2022-07-28T06:37:56.071Z,1.90
2022-07-28T06:40:24.721Z,2.10
2022-07-28T06:42:52.697Z,1.80
2022-07-28T06:45:21.806Z,1.50
2022-07-28T06:47:50.946Z,1.80
2022-07-28T06:50:26.510Z,1.80
2022-07-28T06:52:59.106Z,1.50
2022-07-28T06:55:31.325Z,1.50
2022-07-28T06:58:06.371Z,1.40
2022-07-28T07:00:34.604Z,1.70
2022-07-28T07:03:09.616Z,1.40
2022-07-28T07:05:40.662Z,1.50
2022-07-28T07:08:08.682Z,1.60
2022-07-28T07:10:36.670Z,1.60
2022-07-28T07:13:05.059Z,1.50
2022-07-28T07:15:34.959Z,1.50
2022-07-28T07:18:07.709Z,1.60
2022-07-28T07:20:36.480Z,1.60
2022-07-28T07:23:07.619Z,1.30
2022-07-28T07:25:41.533Z,1.80
2022-07-28T07:28:11.967Z,1.80
2022-07-28T07:30:40.316Z,1.30
2022-07-28T07:33:10.906Z,1.70
2022-07-28T07:35:39.101Z,1.30
2022-07-28T07:38:07.466Z,1.50
2022-07-28T07:40:35.750Z,1.40
2022-07-28T07:43:04.700Z,1.50
2022-07-28T07:45:34.517Z,1.60
2022-07-28T07:48:03.909Z,1.50
2022-07-28T07:50:38.906Z,1.60
2022-07-28T07:53:07.156Z,1.50
2022-07-28T07:55:37.961Z,1.50
2022-07-28T07:58:06.546Z,1.50
2022-07-28T08:00:34.675Z,1.30
2022-07-28T08:03:02.835Z,1.60
2022-07-28T08:05:35.511Z,1.10
2022-07-28T08:08:05.687Z,1.60
2022-07-28T08:10:37.921Z,1.50
2022-07-28T08:13:08.001Z,1.40
2022-07-28T08:15:36.057Z,1.00
2022-07-28T08:18:04.890Z,1.60
2022-07-28T08:20:32.989Z,1.40
2022-07-28T08:23:01.371Z,1.60
2022-07-28T08:25:29.290Z,1.70
2022-07-28T08:27:57.238Z,1.80
2022-07-28T08:30:30.265Z,1.60
2022-07-28T08:33:02.534Z,1.70
2022-07-28T08:35:33.501Z,1.40
2022-07-28T08:38:04.597Z,1.70
2022-07-28T08:40:32.995Z,1.60
2022-07-28T08:43:21.217Z,1.30
2022-07-28T08:45:52.504Z,1.40
2022-07-28T08:48:23.730Z,1.70
2022-07-28T08:50:54.088Z,1.80
2022-07-28T08:53:30.697Z,1.60
2022-07-28T08:56:05.851Z,1.60
2022-07-28T08:58:36.802Z,1.70
2022-07-28T09:01:08.645Z,1.50
2022-07-28T09:03:39.277Z,1.60
2022-07-28T09:06:08.470Z,1.50
2022-07-28T09:08:37.340Z,1.60
2022-07-28T09:11:07.027Z,1.70
2022-07-28T09:13:36.545Z,1.80
2022-07-28T09:16:06.923Z,1.40
2022-07-28T09:18:35.208Z,1.60
2022-07-28T09:21:03.221Z,1.60
2022-07-28T09:23:48.944Z,1.70
2022-07-28T09:26:18.661Z,1.70
2022-07-28T09:28:59.279Z,1.40
2022-07-28T09:31:29.408Z,1.40
2022-07-28T09:34:02.654Z,1.70
2022-07-28T09:36:39.202Z,1.60
2022-07-28T09:39:08.403Z,1.30
2022-07-28T09:41:53.386Z,1.50
2022-07-28T09:44:23.375Z,1.30
2022-07-28T09:46:51.512Z,1.70
2022-07-28T09:49:22.887Z,1.20
2022-07-28T09:52:02.750Z,1.50
2022-07-28T09:54:30.756Z,1.80
2022-07-28T09:56:59.416Z,1.70
2022-07-28T09:59:46.194Z,1.40
2022-07-28T10:02:24.960Z,1.60
2022-07-28T10:04:54.629Z,1.50
2022-07-28T10:07:22.775Z,1.50
2022-07-28T10:10:01.016Z,1.10
2022-07-28T10:12:31.599Z,1.20
2022-07-28T10:15:34.839Z,1.40
2022-07-28T10:18:03.728Z,1.40
2022-07-28T10:20:34.760Z,0.90
2022-07-28T10:23:09.566Z,1.60
2022-07-28T10:25:40.597Z,1.40
2022-07-28T10:28:12.069Z,1.40
2022-07-28T10:30:41.448Z,1.50
2022-07-28T10:33:15.186Z,1.30
2022-07-28T10:35:54.769Z,1.30
2022-07-28T10:38:28.806Z,1.20
2022-07-28T10:40:59.821Z,1.30
2022-07-28T10:43:32.849Z,1.00
2022-07-28T10:46:06.833Z,1.20
2022-07-28T10:48:39.251Z,1.40
2022-07-28T10:51:07.672Z,1.30
2022-07-28T10:53:39.512Z,1.30
2022-07-28T10:56:18.869Z,1.30
2022-07-28T10:59:04.696Z,1.10
2022-07-28T11:01:51.913Z,1.30
2022-07-28T11:04:52.023Z,1.10
2022-07-28T11:07:21.177Z,1.20
2022-07-28T11:09:50.135Z,1.30
2022-07-28T11:12:48.885Z,1.40
2022-07-28T11:15:38.101Z,1.00
2022-07-28T11:18:10.840Z,3.70
2022-07-28T11:20:51.625Z,1.30
2022-07-28T11:23:58.369Z,1.30
2022-07-28T11:26:31.102Z,1.30
2022-07-28T11:29:06.016Z,1.00
2022-07-28T11:31:48.784Z,1.30
2022-07-28T11:34:23.707Z,1.00
2022-07-28T11:37:01.621Z,1.00
2022-07-28T11:39:43.867Z,0.90
2022-07-28T11:42:29.481Z,1.00
2022-07-28T11:45:23.125Z,1.10
2022-07-28T11:48:17.103Z,2.30
2022-07-28T11:51:14.328Z,1.00
2022-07-28T11:53:48.494Z,1.20
2022-07-28T11:56:24.472Z,1.30
2022-07-28T11:59:07.230Z,0.90
2022-07-28T12:01:37.094Z,1.20
2022-07-28T12:04:19.099Z,1.10
2022-07-28T12:06:51.660Z,0.80
2022-07-28T12:09:25.617Z,1.30
2022-07-28T12:11:56.098Z,1.00
2022-07-28T12:14:24.401Z,1.10
2022-07-28T12:16:53.263Z,0.80
2022-07-28T12:19:21.879Z,0.90
2022-07-28T12:21:55.354Z,1.00
2022-07-28T12:24:29.617Z,0.90
2022-07-28T12:27:00.564Z,1.40
2022-07-28T12:29:32.219Z,1.10
2022-07-28T12:32:06.722Z,1.00
2022-07-28T12:34:35.698Z,1.10
2022-07-28T12:37:12.592Z,1.10
2022-07-28T12:39:43.023Z,1.30
2022-07-28T12:42:12.864Z,1.00
2022-07-28T12:44:44.081Z,1.10
2022-07-28T12:47:14.391Z,0.90
2022-07-28T12:49:44.829Z,1.10
2022-07-28T12:52:22.311Z,1.10
2022-07-28T12:54:55.226Z,0.90
2022-07-28T12:57:50.538Z,1.20
2022-07-28T13:00:31.906Z,1.20
2022-07-28T13:03:19.581Z,1.20
2022-07-28T13:06:03.425Z,1.10
2022-07-28T13:08:44.008Z,1.00
2022-07-28T13:14:12.946Z,0.80
2022-07-28T13:16:41.206Z,1.10
2022-07-28T13:19:21.538Z,1.10
2022-07-28T13:22:01.690Z,1.00
2022-07-28T13:24:31.593Z,0.90
2022-07-28T13:27:01.754Z,1.10
2022-07-28T13:29:34.889Z,1.20
2022-07-28T13:32:03.017Z,1.00
2022-07-28T13:34:31.110Z,0.80
2022-07-28T13:36:59.226Z,0.90
2022-07-28T13:39:27.995Z,1.20
2022-07-28T13:41:58.178Z,0.90
2022-07-28T13:44:28.878Z,1.20
2022-07-28T13:46:59.736Z,1.10
2022-07-28T13:49:33.297Z,1.50
2022-07-28T13:52:02.416Z,1.10
2022-07-28T13:54:30.417Z,1.00
2022-07-28T13:57:14.216Z,1.50
2022-07-28T13:59:43.829Z,1.20
2022-07-28T14:02:15.159Z,1.20
2022-07-28T14:04:49.002Z,1.10
2022-07-28T14:07:20.826Z,1.30
2022-07-28T14:09:52.805Z,1.00
2022-07-28T14:12:22.490Z,1.20
2022-07-28T14:14:53.084Z,1.30
2022-07-28T14:17:43.718Z,1.10
2022-07-28T14:20:12.302Z,1.30
2022-07-28T14:22:40.398Z,1.20
2022-07-28T14:25:09.000Z,1.20
2022-07-28T14:27:38.031Z,1.20
2022-07-28T14:30:07.047Z,1.10
2022-07-28T14:32:38.758Z,1.10
2022-07-28T14:35:07.411Z,0.90
2022-07-28T14:37:55.031Z,1.30
2022-07-28T14:40:24.187Z,1.20
2022-07-28T14:42:52.099Z,1.30
2022-07-28T14:45:20.045Z,0.90
2022-07-28T14:47:47.966Z,1.10
2022-07-28T14:50:15.951Z,0.80
2022-07-28T14:52:45.053Z,1.00
2022-07-28T14:55:13.834Z,1.20
2022-07-28T14:57:50.231Z,1.10
2022-07-28T15:00:22.206Z,1.30
2022-07-28T15:02:51.953Z,1.20
2022-07-28T15:05:21.111Z,1.20
2022-07-28T15:07:52.357Z,1.20
2022-07-28T15:10:21.548Z,1.20
2022-07-28T15:12:50.919Z,1.30
2022-07-28T15:15:21.388Z,1.50
2022-07-28T15:17:49.241Z,1.20
2022-07-28T15:20:17.227Z,1.40
2022-07-28T15:22:45.116Z,1.10
2022-07-28T15:25:13.099Z,1.20
2022-07-28T15:27:45.625Z,1.20
2022-07-28T15:30:14.395Z,1.60
2022-07-28T15:32:54.591Z,1.30
2022-07-28T15:35:26.195Z,1.30
2022-07-28T15:37:55.068Z,0.90
2022-07-28T15:40:23.490Z,1.10
2022-07-28T15:42:53.232Z,1.30
2022-07-28T15:45:21.197Z,2.10
2022-07-28T15:47:49.222Z,1.20
2022-07-28T15:50:17.335Z,2.30
2022-07-28T15:52:45.396Z,1.50
2022-07-28T15:55:13.436Z,1.30
2022-07-28T15:57:41.302Z,1.20
2022-07-28T16:00:09.871Z,1.10
2022-07-28T16:02:37.775Z,1.10
2022-07-28T16:05:06.089Z,1.20
2022-07-28T16:07:35.361Z,1.50
2022-07-28T16:10:04.711Z,1.20
2022-07-28T16:12:33.646Z,1.20
2022-07-28T16:15:02.029Z,1.30
2022-07-28T16:17:30.022Z,1.00
2022-07-28T16:20:02.426Z,1.10
2022-07-28T16:22:30.783Z,1.20
2022-07-28T16:24:58.662Z,1.40
2022-07-28T16:27:26.540Z,1.40
2022-07-28T16:29:54.793Z,1.30
2022-07-28T16:32:22.802Z,1.30
2022-07-28T16:34:54.964Z,1.30
2022-07-28T16:37:22.961Z,1.40
2022-07-28T16:39:51.041Z,1.20
2022-07-28T16:42:19.036Z,1.10
2022-07-28T16:44:47.575Z,1.50
2022-07-28T16:47:16.009Z,1.20
2022-07-28T16:49:46.199Z,1.60
2022-07-28T16:52:15.519Z,1.30
2022-07-28T16:54:43.767Z,1.20
2022-07-28T16:57:12.557Z,1.50
2022-07-28T16:59:48.732Z,1.10
2022-07-28T17:02:19.441Z,1.40
2022-07-28T17:04:47.889Z,1.00
2022-07-28T17:07:15.898Z,1.30
2022-07-28T17:09:44.645Z,1.20
2022-07-28T17:12:13.470Z,1.40
2022-07-28T17:14:41.438Z,1.40
2022-07-28T17:17:09.601Z,1.40
2022-07-28T17:19:41.996Z,1.30
2022-07-28T17:22:15.264Z,1.30
2022-07-28T17:24:43.252Z,1.60
2022-07-28T17:29:59.066Z,1.50
2022-07-28T17:32:26.976Z,1.30
2022-07-28T17:34:55.770Z,1.60
2022-07-28T17:37:23.605Z,1.00
2022-07-28T17:39:51.741Z,1.60
2022-07-28T17:42:19.839Z,1.70
2022-07-28T17:44:48.883Z,1.40
2022-07-28T17:47:17.105Z,1.70
2022-07-28T17:49:45.726Z,1.70
2022-07-28T17:52:13.711Z,1.60
2022-07-28T17:55:00.718Z,1.50
2022-07-28T17:57:31.018Z,1.50
2022-07-28T18:00:06.864Z,1.50
2022-07-28T18:02:34.780Z,1.40
2022-07-28T18:05:02.704Z,1.30
2022-07-28T18:07:30.762Z,1.50
2022-07-28T18:10:24.532Z,1.80
2022-07-28T18:12:52.948Z,1.40
2022-07-28T18:15:20.854Z,1.50
2022-07-28T18:17:55.230Z,1.40
2022-07-28T18:20:24.483Z,1.70
2022-07-28T18:22:52.477Z,1.30
2022-07-28T18:25:21.355Z,1.90
2022-07-28T18:27:49.426Z,1.60
2022-07-28T18:30:18.215Z,1.50
2022-07-28T18:32:46.181Z,1.70
2022-07-28T18:35:14.945Z,1.80
2022-07-28T18:37:45.962Z,1.60
2022-07-28T18:40:16.403Z,1.70
2022-07-28T18:42:46.452Z,1.70
2022-07-28T18:45:15.503Z,2.10
2022-07-28T18:47:46.209Z,2.30
2022-07-28T18:50:30.462Z,2.20
2022-07-28T18:53:00.090Z,2.10
2022-07-28T18:55:28.147Z,2.20
2022-07-28T18:57:56.378Z,1.80
2022-07-28T19:00:24.432Z,2.00
2022-07-28T19:02:52.864Z,2.30
2022-07-28T19:05:20.910Z,2.30
2022-07-28T19:07:48.877Z,2.00
2022-07-28T19:10:16.821Z,1.90
2022-07-28T19:12:47.088Z,2.10
2022-07-28T19:15:15.051Z,2.10
2022-07-28T19:17:42.976Z,1.90
2022-07-28T19:20:12.122Z,2.20
2022-07-28T19:22:40.569Z,2.50
2022-07-28T19:25:09.031Z,2.50
2022-07-28T19:27:37.426Z,2.30
2022-07-28T19:30:07.582Z,2.50
2022-07-28T19:32:35.859Z,2.50
2022-07-28T19:35:04.286Z,2.40
2022-07-28T19:37:32.463Z,2.50
2022-07-28T19:40:00.254Z,2.50
2022-07-28T19:42:30.524Z,2.40
2022-07-28T19:44:58.466Z,2.30
2022-07-28T19:47:26.438Z,2.60
2022-07-28T19:49:54.346Z,2.90
2022-07-28T19:52:24.157Z,2.90
2022-07-28T19:54:52.876Z,2.80
2022-07-28T19:57:23.298Z,3.10
2022-07-28T19:59:51.164Z,2.90
2022-07-28T20:02:19.175Z,2.80
2022-07-28T20:04:47.176Z,2.80
2022-07-28T20:07:15.309Z,2.80
2022-07-28T20:09:43.218Z,2.80
2022-07-28T20:12:11.256Z,2.70
2022-07-28T20:14:39.186Z,3.40
2022-07-28T20:17:07.494Z,3.40
2022-07-28T20:19:35.527Z,3.50
2022-07-28T20:22:03.500Z,3.10
2022-07-28T20:24:31.433Z,3.30
2022-07-28T20:27:01.207Z,3.50
2022-07-28T20:29:29.086Z,3.60
2022-07-28T20:31:56.978Z,3.20
2022-07-28T20:34:24.898Z,3.10
2022-07-28T20:36:54.506Z,3.30
2022-07-28T20:39:43.749Z,3.30
2022-07-28T20:42:10.847Z,2.70
2022-07-28T20:44:38.969Z,3.00
2022-07-28T20:47:07.053Z,3.30
2022-07-28T20:49:34.976Z,3.00
2022-07-28T20:52:03.671Z,2.90
2022-07-28T20:54:32.476Z,3.40
2022-07-28T20:57:00.555Z,3.10
2022-07-28T20:59:28.474Z,2.80
2022-07-28T21:01:56.908Z,3.30
2022-07-28T21:04:26.663Z,3.20
2022-07-28T21:07:01.740Z,3.60
2022-07-28T21:09:30.308Z,3.60
2022-07-28T21:11:58.215Z,3.50
2022-07-28T21:14:26.204Z,3.40
2022-07-28T21:16:55.114Z,3.60
2022-07-28T21:19:23.081Z,3.60
2022-07-28T21:21:51.270Z,3.40
2022-07-28T21:24:19.403Z,4.00
2022-07-28T21:26:49.886Z,3.60
2022-07-28T21:32:04.100Z,3.10
2022-07-28T21:34:34.989Z,3.60
2022-07-28T21:37:06.915Z,3.50
2022-07-28T21:39:36.045Z,3.80
2022-07-28T21:42:07.780Z,3.60
2022-07-28T21:44:37.607Z,3.50
2022-07-28T21:47:05.912Z,3.30
2022-07-28T21:49:34.074Z,3.10
2022-07-28T21:52:02.091Z,3.30
2022-07-28T21:54:30.305Z,3.20
2022-07-28T21:56:58.306Z,3.60
2022-07-28T21:59:26.300Z,3.00
2022-07-28T22:01:54.233Z,3.50
2022-07-28T22:04:22.389Z,3.60
2022-07-28T22:06:50.839Z,3.80
2022-07-28T22:09:18.746Z,3.20
2022-07-28T22:11:46.590Z,3.50
2022-07-28T22:14:14.750Z,3.50
2022-07-28T22:16:42.885Z,3.90
2022-07-28T22:19:12.358Z,3.70
2022-07-28T22:21:40.275Z,3.70
2022-07-28T22:24:08.916Z,3.70
2022-07-28T22:26:37.061Z,3.90
2022-07-28T22:29:05.286Z,4.00
2022-07-28T22:31:33.273Z,3.80
2022-07-28T22:34:01.408Z,3.90
2022-07-28T22:36:29.416Z,4.00
2022-07-28T22:38:57.412Z,3.50
2022-07-28T22:41:25.579Z,4.10
2022-07-28T22:43:54.686Z,4.20
2022-07-28T22:46:22.808Z,3.80
2022-07-28T22:48:51.040Z,3.70
2022-07-28T22:51:19.089Z,3.40
2022-07-28T22:53:46.980Z,3.90
2022-07-28T22:56:15.009Z,3.90
2022-07-28T22:58:43.180Z,3.60
2022-07-28T23:01:11.370Z,3.90
2022-07-28T23:09:26.981Z,3.50
2022-07-28T23:11:55.599Z,4.40
2022-07-28T23:14:24.333Z,3.60
2022-07-28T23:16:52.127Z,3.70
2022-07-28T23:19:20.042Z,3.30
2022-07-28T23:21:48.036Z,4.10
2022-07-28T23:24:16.462Z,3.90
2022-07-28T23:26:44.989Z,4.10
2022-07-28T23:29:12.946Z,3.60
2022-07-28T23:31:40.978Z,4.00
2022-07-28T23:34:09.157Z,3.70
2022-07-28T23:36:37.104Z,3.80
2022-07-28T23:39:05.021Z,3.80
2022-07-28T23:41:32.943Z,3.40
2022-07-28T23:44:00.857Z,3.70
2022-07-28T23:46:28.905Z,4.00
2022-07-28T23:48:56.847Z,3.70
2022-07-28T23:51:46.894Z,3.50
2022-07-28T23:54:14.581Z,3.60
2022-07-28T23:56:43.612Z,3.70
2022-07-28T23:59:13.992Z,3.60
